createdAt,value
2022-09-22T00:00:12.989Z,3.00
2022-09-22T00:03:06.718Z,2.80
2022-09-22T00:05:40.452Z,2.90
2022-09-22T00:08:14.206Z,3.00
2022-09-22T00:10:59.681Z,3.30
2022-09-22T00:13:34.825Z,3.00
2022-09-22T00:16:13.729Z,2.90
2022-09-22T00:18:47.812Z,3.00
2022-09-22T00:21:27.865Z,2.80
2022-09-22T00:24:04.096Z,3.40
2022-09-22T00:26:39.183Z,3.10
2022-09-22T00:29:13.855Z,2.50
2022-09-22T00:31:48.467Z,2.40
2022-09-22T00:34:25.199Z,2.40
2022-09-22T00:36:59.725Z,2.60
2022-09-22T00:39:33.431Z,3.10
2022-09-22T00:42:07.868Z,2.50
2022-09-22T00:44:45.155Z,3.00
2022-09-22T00:47:37.658Z,3.00
2022-09-22T00:50:18.590Z,2.70
2022-09-22T00:53:02.598Z,2.60
2022-09-22T00:55:44.012Z,2.70
2022-09-22T00:58:23.730Z,2.70
2022-09-22T01:00:58.326Z,2.80
2022-09-22T01:03:33.081Z,2.60
2022-09-22T01:06:12.664Z,2.90
2022-09-22T01:08:47.796Z,3.30
2022-09-22T01:11:22.593Z,2.90
2022-09-22T01:14:14.607Z,3.40
2022-09-22T01:17:06.034Z,3.30
2022-09-22T01:20:19.902Z,4.30
2022-09-22T01:23:47.312Z,3.30
2022-09-22T01:27:07.011Z,3.10
2022-09-22T01:30:18.699Z,3.00
2022-09-22T01:33:12.003Z,3.00
2022-09-22T01:35:58.901Z,2.80
2022-09-22T01:38:45.093Z,3.20
2022-09-22T01:41:35.380Z,4.10
2022-09-22T01:44:17.655Z,3.30
2022-09-22T01:47:01.882Z,3.10
2022-09-22T01:49:42.884Z,3.40
2022-09-22T01:52:22.850Z,3.30
2022-09-22T01:55:01.876Z,3.40
2022-09-22T01:57:44.930Z,3.70
2022-09-22T02:00:20.412Z,3.70
2022-09-22T02:03:01.994Z,3.80
2022-09-22T02:05:42.601Z,3.70
2022-09-22T02:08:25.941Z,3.40
2022-09-22T02:11:09.985Z,3.70
2022-09-22T02:13:45.521Z,3.80
2022-09-22T02:16:23.264Z,4.10
2022-09-22T02:19:12.431Z,4.10
2022-09-22T02:21:50.634Z,4.10
2022-09-22T02:24:37.087Z,4.80
2022-09-22T02:27:16.230Z,5.00
2022-09-22T02:29:59.161Z,4.70
2022-09-22T02:32:35.573Z,4.40
2022-09-22T02:35:11.862Z,4.80
2022-09-22T02:37:59.241Z,4.70
2022-09-22T02:40:44.006Z,4.50
2022-09-22T02:43:29.948Z,4.40
2022-09-22T02:46:16.378Z,4.40
2022-09-22T02:48:56.109Z,3.70
2022-09-22T02:51:31.227Z,3.90
2022-09-22T02:54:06.480Z,4.00
2022-09-22T02:56:40.595Z,4.90
2022-09-22T02:59:14.622Z,5.10
2022-09-22T03:01:48.556Z,4.90
2022-09-22T03:04:22.934Z,4.80
2022-09-22T03:06:57.651Z,5.80
2022-09-22T03:09:31.587Z,5.80
2022-09-22T03:12:06.405Z,6.00
2022-09-22T03:14:40.436Z,5.40
2022-09-22T03:17:14.414Z,3.90
2022-09-22T03:19:48.195Z,3.70
2022-09-22T03:22:22.063Z,3.90
2022-09-22T03:24:55.760Z,4.40
2022-09-22T03:27:29.957Z,4.30
2022-09-22T03:30:04.951Z,4.40
2022-09-22T03:32:39.159Z,5.30
2022-09-22T03:35:13.915Z,4.90
2022-09-22T03:37:48.175Z,4.90
2022-09-22T03:40:22.723Z,4.50
2022-09-22T03:42:56.710Z,4.40
2022-09-22T03:45:30.526Z,4.40
2022-09-22T03:48:05.250Z,5.10
2022-09-22T03:50:39.215Z,3.50
2022-09-22T03:53:13.182Z,4.00
2022-09-22T03:55:47.051Z,3.60
2022-09-22T03:58:21.710Z,4.10
2022-09-22T04:00:55.955Z,4.30
2022-09-22T04:03:29.926Z,3.90
2022-09-22T04:06:05.288Z,5.00
2022-09-22T04:08:39.375Z,4.60
2022-09-22T04:11:13.331Z,4.30
2022-09-22T04:13:48.011Z,5.20
2022-09-22T04:16:22.478Z,5.00
2022-09-22T04:18:56.773Z,4.30
2022-09-22T04:21:30.790Z,5.20
2022-09-22T04:24:11.563Z,6.10
2022-09-22T04:27:08.200Z,5.00
2022-09-22T04:29:40.242Z,4.40
2022-09-22T04:32:14.714Z,4.20
2022-09-22T04:34:49.109Z,3.80
2022-09-22T04:37:23.136Z,3.80
2022-09-22T04:39:57.494Z,4.80
2022-09-22T04:42:31.796Z,6.70
2022-09-22T04:45:07.561Z,6.10
2022-09-22T04:47:41.784Z,6.80
2022-09-22T04:50:16.499Z,6.20
2022-09-22T04:52:52.882Z,5.00
2022-09-22T04:55:28.858Z,7.10
2022-09-22T04:58:03.295Z,8.90
2022-09-22T05:00:38.000Z,9.10
2022-09-22T05:03:18.648Z,9.30
2022-09-22T05:05:56.153Z,10.10
2022-09-22T05:08:30.219Z,9.70
2022-09-22T05:11:09.975Z,9.20
2022-09-22T05:13:44.102Z,9.90
2022-09-22T05:16:18.439Z,10.60
2022-09-22T05:18:53.195Z,9.20
2022-09-22T05:21:27.085Z,7.90
2022-09-22T05:24:02.495Z,8.60
2022-09-22T05:26:36.567Z,10.20
2022-09-22T05:29:10.737Z,9.90
2022-09-22T05:31:44.918Z,9.90
2022-09-22T05:34:18.974Z,10.00
2022-09-22T05:36:53.027Z,9.50
2022-09-22T05:39:27.179Z,9.80
2022-09-22T05:42:01.697Z,9.80
2022-09-22T05:44:35.638Z,9.60
2022-09-22T05:47:10.164Z,9.10
2022-09-22T05:49:48.565Z,8.50
2022-09-22T05:52:25.139Z,8.80
2022-09-22T05:54:59.041Z,8.50
2022-09-22T05:57:33.485Z,8.10
2022-09-22T06:00:11.466Z,8.50
2022-09-22T06:02:49.304Z,8.80
2022-09-22T06:05:23.606Z,7.90
2022-09-22T06:08:04.145Z,8.10
2022-09-22T06:10:40.521Z,7.50
2022-09-22T06:13:15.649Z,7.60
2022-09-22T06:15:50.719Z,7.30
2022-09-22T06:18:26.539Z,7.00
2022-09-22T06:21:00.744Z,6.10
2022-09-22T06:23:39.362Z,6.00
2022-09-22T06:26:16.532Z,6.80
2022-09-22T06:28:51.642Z,6.80
2022-09-22T06:31:25.890Z,6.20
2022-09-22T06:34:04.270Z,5.00
2022-09-22T06:36:43.170Z,6.00
2022-09-22T06:39:17.581Z,6.40
2022-09-22T06:41:51.846Z,6.80
2022-09-22T06:44:26.121Z,6.60
2022-09-22T06:47:00.371Z,7.10
2022-09-22T06:49:34.223Z,6.00
2022-09-22T06:52:11.228Z,6.20
2022-09-22T06:54:44.647Z,7.20
2022-09-22T06:57:19.294Z,6.20
2022-09-22T06:59:53.281Z,5.90
2022-09-22T07:02:28.261Z,5.40
2022-09-22T07:05:02.423Z,5.00
2022-09-22T07:07:36.653Z,5.90
2022-09-22T07:10:14.966Z,6.70
2022-09-22T07:12:49.266Z,5.50
2022-09-22T07:15:23.503Z,5.30
2022-09-22T07:17:57.350Z,5.00
2022-09-22T07:20:32.478Z,5.00
2022-09-22T07:23:16.345Z,5.50
2022-09-22T07:25:57.360Z,5.00
2022-09-22T07:28:47.282Z,5.30
2022-09-22T07:31:27.806Z,4.70
2022-09-22T07:34:03.954Z,4.40
2022-09-22T07:36:39.248Z,4.50
2022-09-22T07:39:13.568Z,3.90
2022-09-22T07:41:48.139Z,4.50
2022-09-22T07:44:43.717Z,3.90
2022-09-22T07:47:39.839Z,4.10
2022-09-22T07:50:17.305Z,3.80
2022-09-22T07:52:56.242Z,3.50
2022-09-22T07:55:29.957Z,2.70
2022-09-22T07:58:04.503Z,3.20
2022-09-22T08:00:38.673Z,2.20
2022-09-22T08:03:12.802Z,2.60
2022-09-22T08:05:52.345Z,2.80
2022-09-22T08:08:26.185Z,2.00
2022-09-22T08:11:06.814Z,1.90
2022-09-22T08:13:40.891Z,2.10
2022-09-22T08:16:14.696Z,2.20
2022-09-22T08:18:56.684Z,2.00
2022-09-22T08:21:35.309Z,2.10
2022-09-22T08:24:13.596Z,1.80
2022-09-22T08:26:48.558Z,2.60
2022-09-22T08:29:23.854Z,1.90
2022-09-22T08:31:57.491Z,1.40
2022-09-22T08:34:31.371Z,2.00
2022-09-22T08:37:05.583Z,1.50
2022-09-22T08:39:39.833Z,1.50
2022-09-22T08:42:22.092Z,0.90
2022-09-22T08:45:07.487Z,1.10
2022-09-22T08:48:09.384Z,1.50
2022-09-22T08:51:09.379Z,1.10
2022-09-22T08:53:49.960Z,1.10
2022-09-22T08:56:34.583Z,0.90
2022-09-22T08:59:19.116Z,1.00
2022-09-22T09:02:16.079Z,0.80
2022-09-22T09:05:43.750Z,0.70
2022-09-22T09:08:41.606Z,0.60
2022-09-22T09:11:34.458Z,1.60
2022-09-22T09:14:27.073Z,1.30
2022-09-22T09:17:09.996Z,0.90
2022-09-22T09:19:48.540Z,1.30
2022-09-22T09:22:27.912Z,1.00
2022-09-22T09:25:24.891Z,0.90
2022-09-22T09:28:03.055Z,0.90
2022-09-22T09:30:44.460Z,1.20
2022-09-22T09:33:34.469Z,1.20
2022-09-22T09:38:58.743Z,1.30
2022-09-22T09:41:36.487Z,1.20
2022-09-22T09:44:20.337Z,1.90
2022-09-22T09:47:11.670Z,1.10
2022-09-22T09:49:46.149Z,1.10
2022-09-22T09:52:21.060Z,1.10
2022-09-22T09:54:57.072Z,1.00
2022-09-22T09:57:32.426Z,1.00
2022-09-22T10:00:33.188Z,0.80
2022-09-22T10:03:25.257Z,0.60
2022-09-22T10:06:07.815Z,0.90
2022-09-22T10:08:51.646Z,0.70
2022-09-22T10:11:35.574Z,0.50
2022-09-22T10:14:30.602Z,1.40
2022-09-22T10:17:05.236Z,1.10
2022-09-22T10:19:40.124Z,0.70
2022-09-22T10:22:31.531Z,0.70
2022-09-22T10:25:20.557Z,1.30
2022-09-22T10:28:09.487Z,1.60
2022-09-22T10:30:46.830Z,0.80
2022-09-22T10:33:23.564Z,0.80
2022-09-22T10:36:12.379Z,1.10
2022-09-22T10:38:48.541Z,0.90
2022-09-22T10:41:27.474Z,0.80
2022-09-22T10:44:27.346Z,0.90
2022-09-22T10:47:20.699Z,1.30
2022-09-22T10:50:22.809Z,0.90
2022-09-22T10:53:09.716Z,0.80
2022-09-22T10:55:59.394Z,1.30
2022-09-22T10:59:16.242Z,1.20
2022-09-22T11:02:13.447Z,1.00
2022-09-22T11:05:04.643Z,0.70
2022-09-22T11:08:17.066Z,0.70
2022-09-22T11:11:22.701Z,1.10
2022-09-22T11:14:17.851Z,1.10
2022-09-22T11:17:21.449Z,0.70
2022-09-22T11:20:34.382Z,0.50
2022-09-22T11:23:38.976Z,0.70
2022-09-22T11:26:53.303Z,0.80
2022-09-22T11:30:10.486Z,0.80
2022-09-22T11:33:08.719Z,0.80
2022-09-22T11:36:17.607Z,0.70
2022-09-22T11:39:15.403Z,0.70
2022-09-22T11:42:02.364Z,0.70
2022-09-22T11:44:43.887Z,0.70
2022-09-22T11:47:54.070Z,0.60
2022-09-22T11:50:54.145Z,0.50
2022-09-22T11:53:51.489Z,0.60
2022-09-22T11:56:39.459Z,0.50
2022-09-22T11:59:29.186Z,0.50
2022-09-22T12:02:12.184Z,0.50
2022-09-22T12:04:54.461Z,0.60
2022-09-22T12:07:34.378Z,1.00
2022-09-22T12:10:18.585Z,0.60
2022-09-22T12:12:53.106Z,0.40
2022-09-22T12:15:35.861Z,0.40
2022-09-22T12:18:21.317Z,0.50
2022-09-22T12:21:15.582Z,0.50
2022-09-22T12:23:52.290Z,0.50
2022-09-22T12:26:37.861Z,0.40
2022-09-22T12:29:26.632Z,0.40
2022-09-22T12:32:02.468Z,0.40
2022-09-22T12:34:45.024Z,0.50
2022-09-22T12:37:30.256Z,0.50
2022-09-22T12:40:23.486Z,0.40
2022-09-22T12:42:59.366Z,0.40
2022-09-22T12:45:41.759Z,0.50
2022-09-22T12:48:23.635Z,0.40
2022-09-22T12:51:30.164Z,0.40
2022-09-22T12:54:39.227Z,0.40
2022-09-22T12:57:45.564Z,0.50
2022-09-22T13:00:34.665Z,0.50
2022-09-22T13:03:53.064Z,0.50
2022-09-22T13:07:01.522Z,0.30
2022-09-22T13:09:35.597Z,0.60
2022-09-22T13:12:32.358Z,0.50
2022-09-22T13:15:21.532Z,0.50
2022-09-22T13:17:57.176Z,0.50
2022-09-22T13:20:37.254Z,0.60
2022-09-22T13:23:17.790Z,0.50
2022-09-22T13:25:52.553Z,0.60
2022-09-22T13:28:28.019Z,0.30
2022-09-22T13:31:16.287Z,0.40
2022-09-22T13:33:50.282Z,0.50
2022-09-22T13:36:25.616Z,0.60
2022-09-22T13:39:01.265Z,0.70
2022-09-22T13:41:50.074Z,0.70
2022-09-22T13:44:30.925Z,0.50
2022-09-22T13:47:14.190Z,0.40
2022-09-22T13:49:53.215Z,0.40
2022-09-22T13:52:31.971Z,0.40
2022-09-22T13:55:16.223Z,0.40
2022-09-22T13:57:52.115Z,0.50
2022-09-22T14:00:31.554Z,0.40
2022-09-22T14:03:12.839Z,0.40
2022-09-22T14:05:53.627Z,0.50
2022-09-22T14:08:33.995Z,0.40
2022-09-22T14:11:13.666Z,0.50
2022-09-22T14:14:01.145Z,0.70
2022-09-22T14:16:44.051Z,0.50
2022-09-22T14:19:23.215Z,0.50
2022-09-22T14:22:03.349Z,0.70
2022-09-22T14:24:44.492Z,0.60
2022-09-22T14:27:26.539Z,0.50
2022-09-22T14:30:04.247Z,0.50
2022-09-22T14:32:45.765Z,0.70
2022-09-22T14:35:30.376Z,1.00
2022-09-22T14:38:15.164Z,0.60
2022-09-22T14:41:03.016Z,0.70
2022-09-22T14:43:42.408Z,0.70
2022-09-22T14:46:35.121Z,0.80
2022-09-22T14:49:43.430Z,0.90
2022-09-22T14:52:30.286Z,0.60
2022-09-22T14:55:15.980Z,0.70
2022-09-22T14:57:55.441Z,0.60
2022-09-22T15:00:47.167Z,0.70
2022-09-22T15:03:27.103Z,0.70
2022-09-22T15:06:12.877Z,0.70
2022-09-22T15:08:52.833Z,0.70
2022-09-22T15:11:51.663Z,0.80
2022-09-22T15:14:48.892Z,0.60
2022-09-22T15:17:58.977Z,0.90
2022-09-22T15:20:42.826Z,0.60
2022-09-22T15:23:27.129Z,0.50
2022-09-22T15:26:05.753Z,0.50
2022-09-22T15:28:40.056Z,0.60
2022-09-22T15:31:26.907Z,0.60
2022-09-22T15:34:04.584Z,0.50
2022-09-22T15:36:48.987Z,0.70
2022-09-22T15:39:26.145Z,0.60
2022-09-22T15:42:00.213Z,0.60
2022-09-22T15:44:34.244Z,0.60
2022-09-22T15:47:16.739Z,0.60
2022-09-22T15:49:52.769Z,0.70
2022-09-22T15:52:27.251Z,0.70
2022-09-22T15:55:01.699Z,0.60
2022-09-22T15:57:36.802Z,0.60
2022-09-22T16:00:22.557Z,0.70
2022-09-22T16:02:56.965Z,0.50
2022-09-22T16:05:34.188Z,0.60
2022-09-22T16:08:09.972Z,0.70
2022-09-22T16:10:44.618Z,0.60
2022-09-22T16:13:20.140Z,0.70
2022-09-22T16:15:55.010Z,0.70
2022-09-22T16:18:30.430Z,0.70
2022-09-22T16:21:18.473Z,0.80
2022-09-22T16:23:54.848Z,0.80
2022-09-22T16:26:31.934Z,0.80
2022-09-22T16:29:08.439Z,0.90
2022-09-22T16:31:44.174Z,1.10
2022-09-22T16:34:18.227Z,0.90
2022-09-22T16:36:52.463Z,0.80
2022-09-22T16:39:36.163Z,0.90
2022-09-22T16:42:11.305Z,0.90
2022-09-22T16:44:51.227Z,0.70
2022-09-22T16:47:27.108Z,0.90
2022-09-22T16:50:03.174Z,0.80
2022-09-22T16:52:38.284Z,0.80
2022-09-22T16:55:13.128Z,0.70
2022-09-22T16:57:47.186Z,0.90
2022-09-22T17:00:23.459Z,1.20
2022-09-22T17:02:57.707Z,1.30
2022-09-22T17:05:32.845Z,0.80
2022-09-22T17:08:08.246Z,0.90
2022-09-22T17:10:42.261Z,1.60
2022-09-22T17:13:18.237Z,2.30
2022-09-22T17:16:08.207Z,2.40
2022-09-22T17:18:42.408Z,2.30
2022-09-22T17:21:22.069Z,2.50
2022-09-22T17:24:00.892Z,2.30
2022-09-22T17:26:41.321Z,2.30
2022-09-22T17:29:17.093Z,1.70
2022-09-22T17:31:52.735Z,1.80
2022-09-22T17:34:28.592Z,1.60
2022-09-22T17:37:05.417Z,1.30
2022-09-22T17:39:39.622Z,1.60
2022-09-22T17:42:15.600Z,1.40
2022-09-22T17:44:50.280Z,1.60
2022-09-22T17:47:42.744Z,1.60
2022-09-22T17:50:34.491Z,2.00
2022-09-22T17:53:26.901Z,2.00
2022-09-22T17:56:05.216Z,1.90
2022-09-22T17:58:40.581Z,1.90
2022-09-22T18:01:15.442Z,1.70
2022-09-22T18:03:50.298Z,1.60
2022-09-22T18:06:24.630Z,2.00
2022-09-22T18:09:06.263Z,1.80
2022-09-22T18:11:44.596Z,1.80
2022-09-22T18:14:18.909Z,1.70
2022-09-22T18:16:53.324Z,1.90
2022-09-22T18:19:27.934Z,2.20
2022-09-22T18:22:02.962Z,1.90
2022-09-22T18:24:38.009Z,2.10
2022-09-22T18:27:13.396Z,2.10
2022-09-22T18:29:48.963Z,2.60
2022-09-22T18:32:23.930Z,2.60
2022-09-22T18:34:58.408Z,2.90
2022-09-22T18:37:33.083Z,3.70
2022-09-22T18:40:12.562Z,3.10
2022-09-22T18:42:46.931Z,3.20
2022-09-22T18:45:21.691Z,3.50
2022-09-22T18:48:02.925Z,3.00
2022-09-22T18:50:38.194Z,3.10
2022-09-22T18:53:13.069Z,3.50
2022-09-22T18:55:50.176Z,4.30
2022-09-22T18:58:24.323Z,5.20
2022-09-22T19:00:59.918Z,4.70
2022-09-22T19:03:34.813Z,4.20
2022-09-22T19:06:10.355Z,4.70
2022-09-22T19:08:45.096Z,4.30
2022-09-22T19:11:20.051Z,3.70
2022-09-22T19:13:55.337Z,4.10
2022-09-22T19:16:32.489Z,3.90
2022-09-22T19:19:07.890Z,4.40
2022-09-22T19:21:42.919Z,4.30
2022-09-22T19:24:17.371Z,4.70
2022-09-22T19:26:55.575Z,4.50
2022-09-22T19:29:30.264Z,4.20
2022-09-22T19:32:06.360Z,4.40
2022-09-22T19:34:41.184Z,4.30
2022-09-22T19:37:15.693Z,4.70
2022-09-22T19:39:50.451Z,4.50
2022-09-22T19:42:24.963Z,4.60
2022-09-22T19:45:00.454Z,4.70
2022-09-22T19:47:34.697Z,4.50
2022-09-22T19:50:10.639Z,4.80
2022-09-22T19:52:45.280Z,4.70
2022-09-22T19:55:21.167Z,3.90
2022-09-22T19:57:55.774Z,4.10
2022-09-22T20:00:30.675Z,4.40
2022-09-22T20:03:05.508Z,4.60
2022-09-22T20:05:41.980Z,4.10
2022-09-22T20:08:16.812Z,4.70
2022-09-22T20:11:05.953Z,4.20
2022-09-22T20:14:04.579Z,4.60
2022-09-22T20:16:44.591Z,4.00
2022-09-22T20:19:20.734Z,5.00
2022-09-22T20:22:18.448Z,5.00
2022-09-22T20:24:55.778Z,4.20
2022-09-22T20:27:34.278Z,4.60
2022-09-22T20:30:11.628Z,5.00
2022-09-22T20:32:47.704Z,4.90
2022-09-22T20:35:23.313Z,4.90
2022-09-22T20:37:59.513Z,4.50
2022-09-22T20:40:34.427Z,4.70
2022-09-22T20:43:11.971Z,5.10
2022-09-22T20:45:47.592Z,4.80
2022-09-22T20:48:23.284Z,5.00
2022-09-22T20:51:03.311Z,5.30
2022-09-22T20:53:40.195Z,5.20
2022-09-22T20:56:15.907Z,5.60
2022-09-22T20:58:52.442Z,5.00
2022-09-22T21:01:27.605Z,5.00
2022-09-22T21:04:02.622Z,5.30
2022-09-22T21:06:38.980Z,5.50
2022-09-22T21:09:32.347Z,5.90
2022-09-22T21:12:08.135Z,5.70
2022-09-22T21:14:46.064Z,5.60
2022-09-22T21:17:20.898Z,6.30
2022-09-22T21:19:57.212Z,6.30
2022-09-22T21:22:32.375Z,5.20
2022-09-22T21:25:07.712Z,5.40
2022-09-22T21:27:41.952Z,5.70
2022-09-22T21:30:17.991Z,5.50
2022-09-22T21:32:52.122Z,6.80
2022-09-22T21:35:26.817Z,6.40
2022-09-22T21:38:01.302Z,6.40
2022-09-22T21:40:35.541Z,6.70
2022-09-22T21:43:09.758Z,6.30
2022-09-22T21:45:43.833Z,6.80
2022-09-22T21:48:17.613Z,7.40
2022-09-22T21:51:01.987Z,5.90
2022-09-22T21:53:37.095Z,6.20
2022-09-22T21:56:13.861Z,5.50
2022-09-22T21:58:51.578Z,5.40
2022-09-22T22:01:28.199Z,5.90
2022-09-22T22:04:08.123Z,6.00
2022-09-22T22:06:45.215Z,5.60
2022-09-22T22:09:25.508Z,6.20
2022-09-22T22:12:00.909Z,6.30
2022-09-22T22:14:35.003Z,6.30
2022-09-22T22:17:08.974Z,6.70
2022-09-22T22:19:43.157Z,6.40
2022-09-22T22:22:17.265Z,6.00
2022-09-22T22:24:50.951Z,6.40
2022-09-22T22:27:26.350Z,7.30
2022-09-22T22:30:00.542Z,7.20
2022-09-22T22:32:34.418Z,7.20
2022-09-22T22:35:09.368Z,7.00
2022-09-22T22:37:45.817Z,7.00
2022-09-22T22:40:20.102Z,7.50
2022-09-22T22:42:55.848Z,8.50
2022-09-22T22:45:29.851Z,7.10
2022-09-22T22:48:03.913Z,8.30
2022-09-22T22:50:39.735Z,7.20
2022-09-22T22:53:15.208Z,7.80
2022-09-22T22:56:01.184Z,7.70
2022-09-22T22:58:39.815Z,8.00
2022-09-22T23:01:17.067Z,7.00
2022-09-22T23:03:54.348Z,7.50
2022-09-22T23:06:32.264Z,7.90
2022-09-22T23:09:08.031Z,9.30
2022-09-22T23:11:43.929Z,9.50
2022-09-22T23:14:18.395Z,8.30
2022-09-22T23:16:53.053Z,8.70
2022-09-22T23:19:26.714Z,9.10
2022-09-22T23:22:00.697Z,8.60
2022-09-22T23:24:34.437Z,7.90
2022-09-22T23:27:08.831Z,7.80
2022-09-22T23:29:42.943Z,8.20
2022-09-22T23:32:16.603Z,7.60
2022-09-22T23:34:50.306Z,9.10
2022-09-22T23:37:26.013Z,7.30
2022-09-22T23:40:00.064Z,8.30
2022-09-22T23:42:34.069Z,8.40
2022-09-22T23:45:10.428Z,8.60
2022-09-22T23:47:44.400Z,8.90
2022-09-22T23:50:18.585Z,7.40
2022-09-22T23:52:52.375Z,8.20
2022-09-22T23:55:26.191Z,8.00
2022-09-22T23:58:00.266Z,8.20
